sensor_id;sensor_type;location;lat;lon;timestamp;temperature;humidity
11003;DHT22;5554;55.796;13.090;2022-09-27T00:04:30;10.80;99.90
11003;DHT22;5554;55.796;13.090;2022-09-27T00:07:21;10.90;99.90
11003;DHT22;5554;55.796;13.090;2022-09-27T00:09:50;10.90;99.90
11003;DHT22;5554;55.796;13.090;2022-09-27T00:12:17;10.90;99.90
11003;DHT22;5554;55.796;13.090;2022-09-27T00:14:45;10.90;99.90
11003;DHT22;5554;55.796;13.090;2022-09-27T00:17:22;10.90;99.90
11003;DHT22;5554;55.796;13.090;2022-09-27T00:19:49;10.90;99.90
11003;DHT22;5554;55.796;13.090;2022-09-27T00:22:26;10.90;99.90
11003;DHT22;5554;55.796;13.090;2022-09-27T00:24:53;10.90;99.90
11003;DHT22;5554;55.796;13.090;2022-09-27T00:27:20;10.90;99.90
11003;DHT22;5554;55.796;13.090;2022-09-27T00:29:50;10.90;99.90
11003;DHT22;5554;55.796;13.090;2022-09-27T00:32:18;10.90;99.90
11003;DHT22;5554;55.796;13.090;2022-09-27T00:35:04;10.90;99.90
11003;DHT22;5554;55.796;13.090;2022-09-27T00:37:39;10.90;99.90
11003;DHT22;5554;55.796;13.090;2022-09-27T00:40:07;10.80;99.90
11003;DHT22;5554;55.796;13.090;2022-09-27T00:42:34;10.80;99.90
11003;DHT22;5554;55.796;13.090;2022-09-27T00:45:13;10.70;99.90
11003;DHT22;5554;55.796;13.090;2022-09-27T00:48:55;10.70;99.90
11003;DHT22;5554;55.796;13.090;2022-09-27T00:54:39;10.70;99.90
11003;DHT22;5554;55.796;13.090;2022-09-27T00:57:10;10.60;99.90
11003;DHT22;5554;55.796;13.090;2022-09-27T00:59:40;10.60;99.90
11003;DHT22;5554;55.796;13.090;2022-09-27T01:02:07;10.60;99.90
11003;DHT22;5554;55.796;13.090;2022-09-27T01:04:37;10.50;99.90
11003;DHT22;5554;55.796;13.090;2022-09-27T01:07:05;10.50;99.90
11003;DHT22;5554;55.796;13.090;2022-09-27T01:09:32;10.50;99.90
11003;DHT22;5554;55.796;13.090;2022-09-27T01:12:09;10.50;99.90
11003;DHT22;5554;55.796;13.090;2022-09-27T01:14:54;10.50;99.90
11003;DHT22;5554;55.796;13.090;2022-09-27T01:17:33;10.40;99.90
11003;DHT22;5554;55.796;13.090;2022-09-27T01:23:42;10.40;99.90
11003;DHT22;5554;55.796;13.090;2022-09-27T01:26:26;10.50;99.90
11003;DHT22;5554;55.796;13.090;2022-09-27T01:29:04;10.40;99.90
11003;DHT22;5554;55.796;13.090;2022-09-27T01:31:39;10.40;99.90
11003;DHT22;5554;55.796;13.090;2022-09-27T01:34:24;10.40;99.90
11003;DHT22;5554;55.796;13.090;2022-09-27T01:36:58;10.30;99.90
11003;DHT22;5554;55.796;13.090;2022-09-27T01:39:37;10.30;99.90
11003;DHT22;5554;55.796;13.090;2022-09-27T01:42:36;10.30;99.90
11003;DHT22;5554;55.796;13.090;2022-09-27T01:45:09;10.30;99.90
11003;DHT22;5554;55.796;13.090;2022-09-27T01:47:43;10.40;99.90
11003;DHT22;5554;55.796;13.090;2022-09-27T01:50:14;10.40;99.90
11003;DHT22;5554;55.796;13.090;2022-09-27T01:52:46;10.40;99.90
11003;DHT22;5554;55.796;13.090;2022-09-27T01:55:17;10.40;99.90
11003;DHT22;5554;55.796;13.090;2022-09-27T01:57:49;10.40;99.90
11003;DHT22;5554;55.796;13.090;2022-09-27T02:00:18;10.40;99.90
11003;DHT22;5554;55.796;13.090;2022-09-27T02:06:09;10.40;99.90
11003;DHT22;5554;55.796;13.090;2022-09-27T02:08:41;10.50;99.90
11003;DHT22;5554;55.796;13.090;2022-09-27T02:11:11;10.50;99.90
11003;DHT22;5554;55.796;13.090;2022-09-27T02:13:43;10.50;99.90
11003;DHT22;5554;55.796;13.090;2022-09-27T02:16:19;10.50;99.90
11003;DHT22;5554;55.796;13.090;2022-09-27T02:18:56;10.50;99.90
11003;DHT22;5554;55.796;13.090;2022-09-27T02:21:36;10.50;99.90
11003;DHT22;5554;55.796;13.090;2022-09-27T02:24:40;10.50;99.90
11003;DHT22;5554;55.796;13.090;2022-09-27T02:27:12;10.50;99.90
11003;DHT22;5554;55.796;13.090;2022-09-27T02:29:48;10.60;99.90
11003;DHT22;5554;55.796;13.090;2022-09-27T02:32:35;10.60;99.90
11003;DHT22;5554;55.796;13.090;2022-09-27T02:35:06;10.60;99.90
11003;DHT22;5554;55.796;13.090;2022-09-27T02:37:37;10.60;99.90
11003;DHT22;5554;55.796;13.090;2022-09-27T02:40:05;10.60;99.90
11003;DHT22;5554;55.796;13.090;2022-09-27T02:42:33;10.60;99.90
11003;DHT22;5554;55.796;13.090;2022-09-27T02:45:04;10.60;99.90
11003;DHT22;5554;55.796;13.090;2022-09-27T02:47:58;10.60;99.90
11003;DHT22;5554;55.796;13.090;2022-09-27T02:50:44;10.60;99.90
11003;DHT22;5554;55.796;13.090;2022-09-27T02:59:34;10.50;99.90
11003;DHT22;5554;55.796;13.090;2022-09-27T03:02:28;10.50;99.90
11003;DHT22;5554;55.796;13.090;2022-09-27T03:05:00;10.50;99.90
11003;DHT22;5554;55.796;13.090;2022-09-27T03:10:52;10.50;99.90
11003;DHT22;5554;55.796;13.090;2022-09-27T03:13:25;10.50;99.90
11003;DHT22;5554;55.796;13.090;2022-09-27T03:15:53;10.40;99.90
11003;DHT22;5554;55.796;13.090;2022-09-27T03:18:20;10.40;99.90
11003;DHT22;5554;55.796;13.090;2022-09-27T03:25:35;10.40;99.90
11003;DHT22;5554;55.796;13.090;2022-09-27T03:28:01;10.40;99.90
11003;DHT22;5554;55.796;13.090;2022-09-27T03:30:29;10.40;99.90
11003;DHT22;5554;55.796;13.090;2022-09-27T03:32:56;10.40;99.90
11003;DHT22;5554;55.796;13.090;2022-09-27T03:35:23;10.40;99.90
11003;DHT22;5554;55.796;13.090;2022-09-27T03:37:50;10.40;99.90
11003;DHT22;5554;55.796;13.090;2022-09-27T03:40:18;10.40;99.90
11003;DHT22;5554;55.796;13.090;2022-09-27T03:42:45;10.40;99.90
11003;DHT22;5554;55.796;13.090;2022-09-27T03:45:16;10.40;99.90
11003;DHT22;5554;55.796;13.090;2022-09-27T03:47:43;10.30;99.90
11003;DHT22;5554;55.796;13.090;2022-09-27T03:50:11;10.30;99.90
11003;DHT22;5554;55.796;13.090;2022-09-27T03:52:52;10.30;99.90
11003;DHT22;5554;55.796;13.090;2022-09-27T03:55:22;10.30;99.90
11003;DHT22;5554;55.796;13.090;2022-09-27T03:57:50;10.20;99.90
11003;DHT22;5554;55.796;13.090;2022-09-27T04:00:20;10.20;99.90
11003;DHT22;5554;55.796;13.090;2022-09-27T04:02:47;10.20;99.90
11003;DHT22;5554;55.796;13.090;2022-09-27T04:05:15;10.20;99.90
11003;DHT22;5554;55.796;13.090;2022-09-27T04:07:45;10.10;99.90
11003;DHT22;5554;55.796;13.090;2022-09-27T04:10:13;10.20;99.90
11003;DHT22;5554;55.796;13.090;2022-09-27T04:12:40;10.10;99.90
11003;DHT22;5554;55.796;13.090;2022-09-27T04:15:09;10.10;99.90
11003;DHT22;5554;55.796;13.090;2022-09-27T04:17:40;10.00;99.90
11003;DHT22;5554;55.796;13.090;2022-09-27T04:20:10;10.10;99.90
11003;DHT22;5554;55.796;13.090;2022-09-27T04:22:59;10.10;99.90
11003;DHT22;5554;55.796;13.090;2022-09-27T04:25:34;10.10;99.90
11003;DHT22;5554;55.796;13.090;2022-09-27T04:28:01;10.00;99.90
11003;DHT22;5554;55.796;13.090;2022-09-27T04:30:30;10.00;99.90
11003;DHT22;5554;55.796;13.090;2022-09-27T04:33:01;10.00;99.90
11003;DHT22;5554;55.796;13.090;2022-09-27T04:35:28;10.00;99.90
11003;DHT22;5554;55.796;13.090;2022-09-27T04:38:12;10.10;99.90
11003;DHT22;5554;55.796;13.090;2022-09-27T04:40:40;10.10;99.90
11003;DHT22;5554;55.796;13.090;2022-09-27T04:43:07;10.00;99.90
11003;DHT22;5554;55.796;13.090;2022-09-27T04:45:35;10.10;99.90
11003;DHT22;5554;55.796;13.090;2022-09-27T04:51:54;10.00;99.90
11003;DHT22;5554;55.796;13.090;2022-09-27T04:54:21;10.00;99.90
11003;DHT22;5554;55.796;13.090;2022-09-27T04:57:01;10.00;99.90
11003;DHT22;5554;55.796;13.090;2022-09-27T04:59:38;10.00;99.90
11003;DHT22;5554;55.796;13.090;2022-09-27T05:02:29;10.00;99.90
11003;DHT22;5554;55.796;13.090;2022-09-27T05:04:56;10.00;99.90
11003;DHT22;5554;55.796;13.090;2022-09-27T05:07:26;10.00;99.90
11003;DHT22;5554;55.796;13.090;2022-09-27T05:09:56;10.00;99.90
11003;DHT22;5554;55.796;13.090;2022-09-27T05:12:23;10.00;99.90
11003;DHT22;5554;55.796;13.090;2022-09-27T05:14:51;10.00;99.90
11003;DHT22;5554;55.796;13.090;2022-09-27T05:17:20;10.00;99.90
11003;DHT22;5554;55.796;13.090;2022-09-27T05:23:13;10.10;99.90
11003;DHT22;5554;55.796;13.090;2022-09-27T05:25:41;10.10;99.90
11003;DHT22;5554;55.796;13.090;2022-09-27T05:28:08;10.10;99.90
11003;DHT22;5554;55.796;13.090;2022-09-27T05:30:36;10.20;99.90
11003;DHT22;5554;55.796;13.090;2022-09-27T05:33:03;10.20;99.90
11003;DHT22;5554;55.796;13.090;2022-09-27T05:38:58;10.30;99.90
11003;DHT22;5554;55.796;13.090;2022-09-27T05:55:15;10.40;99.90
11003;DHT22;5554;55.796;13.090;2022-09-27T06:00:57;10.50;99.90
11003;DHT22;5554;55.796;13.090;2022-09-27T06:03:24;10.50;99.90
11003;DHT22;5554;55.796;13.090;2022-09-27T06:05:51;10.50;99.90
11003;DHT22;5554;55.796;13.090;2022-09-27T06:11:42;10.60;99.90
11003;DHT22;5554;55.796;13.090;2022-09-27T06:14:10;10.70;99.90
11003;DHT22;5554;55.796;13.090;2022-09-27T06:17:03;10.70;99.90
11003;DHT22;5554;55.796;13.090;2022-09-27T06:19:30;10.70;99.90
11003;DHT22;5554;55.796;13.090;2022-09-27T06:21:58;10.80;99.90
11003;DHT22;5554;55.796;13.090;2022-09-27T06:24:25;10.80;99.90
11003;DHT22;5554;55.796;13.090;2022-09-27T06:26:54;10.90;99.90
11003;DHT22;5554;55.796;13.090;2022-09-27T06:29:21;10.90;99.90
11003;DHT22;5554;55.796;13.090;2022-09-27T06:31:48;10.90;99.90
11003;DHT22;5554;55.796;13.090;2022-09-27T06:34:15;10.90;99.90
11003;DHT22;5554;55.796;13.090;2022-09-27T06:36:42;11.00;99.90
11003;DHT22;5554;55.796;13.090;2022-09-27T06:39:11;11.10;99.90
11003;DHT22;5554;55.796;13.090;2022-09-27T06:41:39;11.00;99.90
11003;DHT22;5554;55.796;13.090;2022-09-27T06:47:30;11.10;99.90
11003;DHT22;5554;55.796;13.090;2022-09-27T06:50:00;11.10;99.90
11003;DHT22;5554;55.796;13.090;2022-09-27T06:52:30;11.20;99.90
11003;DHT22;5554;55.796;13.090;2022-09-27T06:54:58;11.20;99.90
11003;DHT22;5554;55.796;13.090;2022-09-27T06:57:25;11.30;99.90
11003;DHT22;5554;55.796;13.090;2022-09-27T07:00:43;11.30;99.90
11003;DHT22;5554;55.796;13.090;2022-09-27T07:03:29;11.40;99.90
11003;DHT22;5554;55.796;13.090;2022-09-27T07:06:14;11.40;99.90
11003;DHT22;5554;55.796;13.090;2022-09-27T07:08:42;11.50;99.90
11003;DHT22;5554;55.796;13.090;2022-09-27T07:11:09;11.50;99.90
11003;DHT22;5554;55.796;13.090;2022-09-27T07:13:37;11.60;99.90
11003;DHT22;5554;55.796;13.090;2022-09-27T07:16:28;11.60;99.90
11003;DHT22;5554;55.796;13.090;2022-09-27T07:19:24;11.60;99.90
11003;DHT22;5554;55.796;13.090;2022-09-27T07:25:39;11.80;99.90
11003;DHT22;5554;55.796;13.090;2022-09-27T07:28:09;11.80;99.90
11003;DHT22;5554;55.796;13.090;2022-09-27T07:30:37;11.80;99.90
11003;DHT22;5554;55.796;13.090;2022-09-27T07:33:06;11.80;99.90
11003;DHT22;5554;55.796;13.090;2022-09-27T07:38:51;11.80;99.90
11003;DHT22;5554;55.796;13.090;2022-09-27T07:41:18;11.90;99.90
11003;DHT22;5554;55.796;13.090;2022-09-27T07:43:57;11.90;99.90
11003;DHT22;5554;55.796;13.090;2022-09-27T07:46:25;11.90;99.90
11003;DHT22;5554;55.796;13.090;2022-09-27T07:48:54;12.00;99.90
11003;DHT22;5554;55.796;13.090;2022-09-27T07:51:21;12.00;99.90
11003;DHT22;5554;55.796;13.090;2022-09-27T07:53:48;12.10;99.90
11003;DHT22;5554;55.796;13.090;2022-09-27T08:06:32;12.20;99.90
11003;DHT22;5554;55.796;13.090;2022-09-27T08:09:05;12.20;99.90
11003;DHT22;5554;55.796;13.090;2022-09-27T08:15:30;12.40;99.90
11003;DHT22;5554;55.796;13.090;2022-09-27T08:17:58;12.40;99.90
11003;DHT22;5554;55.796;13.090;2022-09-27T08:20:39;12.40;99.90
11003;DHT22;5554;55.796;13.090;2022-09-27T08:23:08;12.40;99.90
11003;DHT22;5554;55.796;13.090;2022-09-27T08:25:35;12.30;99.90
11003;DHT22;5554;55.796;13.090;2022-09-27T08:28:16;12.40;99.90
11003;DHT22;5554;55.796;13.090;2022-09-27T08:30:43;12.40;99.90
11003;DHT22;5554;55.796;13.090;2022-09-27T08:33:10;12.30;99.90
11003;DHT22;5554;55.796;13.090;2022-09-27T08:35:40;12.20;99.90
11003;DHT22;5554;55.796;13.090;2022-09-27T08:38:10;12.20;99.90
11003;DHT22;5554;55.796;13.090;2022-09-27T08:40:45;12.20;99.90
11003;DHT22;5554;55.796;13.090;2022-09-27T08:43:33;12.10;99.90
11003;DHT22;5554;55.796;13.090;2022-09-27T08:48:48;12.00;99.90
11003;DHT22;5554;55.796;13.090;2022-09-27T08:51:27;12.00;99.90
11003;DHT22;5554;55.796;13.090;2022-09-27T08:54:01;12.10;99.90
11003;DHT22;5554;55.796;13.090;2022-09-27T08:56:31;12.10;99.90
11003;DHT22;5554;55.796;13.090;2022-09-27T08:59:14;12.10;99.90
11003;DHT22;5554;55.796;13.090;2022-09-27T09:02:18;12.10;99.90
11003;DHT22;5554;55.796;13.090;2022-09-27T09:05:05;12.20;99.90
11003;DHT22;5554;55.796;13.090;2022-09-27T09:08:34;12.20;99.90
11003;DHT22;5554;55.796;13.090;2022-09-27T09:11:08;12.20;99.90
11003;DHT22;5554;55.796;13.090;2022-09-27T09:20:54;12.00;99.90
11003;DHT22;5554;55.796;13.090;2022-09-27T09:23:40;12.10;99.90
11003;DHT22;5554;55.796;13.090;2022-09-27T09:26:17;12.10;99.90
11003;DHT22;5554;55.796;13.090;2022-09-27T09:29:04;12.00;99.90
11003;DHT22;5554;55.796;13.090;2022-09-27T09:31:39;12.00;99.90
11003;DHT22;5554;55.796;13.090;2022-09-27T09:34:13;11.90;99.90
11003;DHT22;5554;55.796;13.090;2022-09-27T09:36:44;11.90;99.90
11003;DHT22;5554;55.796;13.090;2022-09-27T09:39:30;11.90;99.90
11003;DHT22;5554;55.796;13.090;2022-09-27T09:42:07;12.00;99.90
11003;DHT22;5554;55.796;13.090;2022-09-27T09:44:46;12.00;99.90
11003;DHT22;5554;55.796;13.090;2022-09-27T09:47:36;12.00;99.90
11003;DHT22;5554;55.796;13.090;2022-09-27T09:50:12;12.00;99.90
11003;DHT22;5554;55.796;13.090;2022-09-27T09:52:44;12.00;99.90
11003;DHT22;5554;55.796;13.090;2022-09-27T09:55:19;12.00;99.90
11003;DHT22;5554;55.796;13.090;2022-09-27T09:57:58;12.00;99.90
11003;DHT22;5554;55.796;13.090;2022-09-27T10:00:26;12.10;99.90
11003;DHT22;5554;55.796;13.090;2022-09-27T10:02:58;12.10;99.90
11003;DHT22;5554;55.796;13.090;2022-09-27T10:05:26;12.10;99.90
11003;DHT22;5554;55.796;13.090;2022-09-27T10:11:34;12.00;99.90
11003;DHT22;5554;55.796;13.090;2022-09-27T10:14:10;12.00;99.90
11003;DHT22;5554;55.796;13.090;2022-09-27T10:16:42;11.90;99.90
11003;DHT22;5554;55.796;13.090;2022-09-27T10:19:13;11.90;99.90
11003;DHT22;5554;55.796;13.090;2022-09-27T10:21:42;11.90;99.90
11003;DHT22;5554;55.796;13.090;2022-09-27T10:27:49;11.90;99.90
11003;DHT22;5554;55.796;13.090;2022-09-27T10:30:24;12.00;99.90
11003;DHT22;5554;55.796;13.090;2022-09-27T10:32:53;12.30;99.90
11003;DHT22;5554;55.796;13.090;2022-09-27T10:35:35;12.60;99.90
11003;DHT22;5554;55.796;13.090;2022-09-27T10:38:28;13.10;99.90
11003;DHT22;5554;55.796;13.090;2022-09-27T10:41:20;13.30;99.90
11003;DHT22;5554;55.796;13.090;2022-09-27T10:43:48;13.20;99.90
11003;DHT22;5554;55.796;13.090;2022-09-27T10:46:24;13.20;99.90
11003;DHT22;5554;55.796;13.090;2022-09-27T10:49:06;13.10;99.90
11003;DHT22;5554;55.796;13.090;2022-09-27T10:51:34;12.80;99.90
11003;DHT22;5554;55.796;13.090;2022-09-27T10:54:19;12.80;99.90
11003;DHT22;5554;55.796;13.090;2022-09-27T10:57:15;12.70;99.90
11003;DHT22;5554;55.796;13.090;2022-09-27T10:59:50;12.80;99.90
11003;DHT22;5554;55.796;13.090;2022-09-27T11:02:20;12.60;99.90
11003;DHT22;5554;55.796;13.090;2022-09-27T11:05:07;12.60;99.90
11003;DHT22;5554;55.796;13.090;2022-09-27T11:07:47;12.60;99.90
11003;DHT22;5554;55.796;13.090;2022-09-27T11:10:24;12.50;99.90
11003;DHT22;5554;55.796;13.090;2022-09-27T11:13:25;12.40;99.90
11003;DHT22;5554;55.796;13.090;2022-09-27T11:16:15;12.40;99.90
11003;DHT22;5554;55.796;13.090;2022-09-27T11:18:54;12.30;99.90
11003;DHT22;5554;55.796;13.090;2022-09-27T11:21:30;12.30;99.90
11003;DHT22;5554;55.796;13.090;2022-09-27T11:24:14;12.20;99.90
11003;DHT22;5554;55.796;13.090;2022-09-27T11:26:51;12.10;99.90
11003;DHT22;5554;55.796;13.090;2022-09-27T11:29:35;12.00;99.90
11003;DHT22;5554;55.796;13.090;2022-09-27T11:32:13;11.80;99.90
11003;DHT22;5554;55.796;13.090;2022-09-27T11:37:51;12.00;99.90
11003;DHT22;5554;55.796;13.090;2022-09-27T11:40:29;12.20;99.90
11003;DHT22;5554;55.796;13.090;2022-09-27T11:43:06;12.30;99.90
11003;DHT22;5554;55.796;13.090;2022-09-27T11:48:51;12.20;99.90
11003;DHT22;5554;55.796;13.090;2022-09-27T11:51:46;12.10;99.90
11003;DHT22;5554;55.796;13.090;2022-09-27T11:54:31;12.10;99.90
11003;DHT22;5554;55.796;13.090;2022-09-27T11:57:05;11.90;99.90
11003;DHT22;5554;55.796;13.090;2022-09-27T11:59:58;11.80;99.90
11003;DHT22;5554;55.796;13.090;2022-09-27T12:12:22;12.00;99.90
11003;DHT22;5554;55.796;13.090;2022-09-27T12:14:53;12.00;99.90
11003;DHT22;5554;55.796;13.090;2022-09-27T12:17:26;11.90;99.90
11003;DHT22;5554;55.796;13.090;2022-09-27T12:19:57;12.00;99.90
11003;DHT22;5554;55.796;13.090;2022-09-27T12:22:51;12.00;99.90
11003;DHT22;5554;55.796;13.090;2022-09-27T12:25:35;12.10;99.90
11003;DHT22;5554;55.796;13.090;2022-09-27T12:28:09;12.20;99.90
11003;DHT22;5554;55.796;13.090;2022-09-27T12:30:43;12.50;99.90
11003;DHT22;5554;55.796;13.090;2022-09-27T12:33:17;12.50;99.90
11003;DHT22;5554;55.796;13.090;2022-09-27T12:35:52;12.30;99.90
11003;DHT22;5554;55.796;13.090;2022-09-27T12:38:23;12.30;99.90
11003;DHT22;5554;55.796;13.090;2022-09-27T12:41:10;12.20;99.90
11003;DHT22;5554;55.796;13.090;2022-09-27T12:43:44;12.20;99.90
11003;DHT22;5554;55.796;13.090;2022-09-27T12:46:17;12.00;99.90
11003;DHT22;5554;55.796;13.090;2022-09-27T12:48:53;11.90;99.90
11003;DHT22;5554;55.796;13.090;2022-09-27T12:51:24;11.80;99.90
11003;DHT22;5554;55.796;13.090;2022-09-27T12:56:55;11.90;99.90
11003;DHT22;5554;55.796;13.090;2022-09-27T13:06:57;12.10;99.90
11003;DHT22;5554;55.796;13.090;2022-09-27T13:12:27;12.60;99.90
11003;DHT22;5554;55.796;13.090;2022-09-27T13:15:01;12.70;99.90
11003;DHT22;5554;55.796;13.090;2022-09-27T13:17:52;12.90;99.90
11003;DHT22;5554;55.796;13.090;2022-09-27T13:27:38;13.10;99.90
11003;DHT22;5554;55.796;13.090;2022-09-27T13:36:31;13.10;99.90
11003;DHT22;5554;55.796;13.090;2022-09-27T13:39:17;13.10;99.90
11003;DHT22;5554;55.796;13.090;2022-09-27T13:42:31;13.00;99.90
11003;DHT22;5554;55.796;13.090;2022-09-27T13:45:26;12.90;99.90
11003;DHT22;5554;55.796;13.090;2022-09-27T13:47:58;12.90;99.90
11003;DHT22;5554;55.796;13.090;2022-09-27T13:50:29;12.70;99.90
11003;DHT22;5554;55.796;13.090;2022-09-27T13:53:06;12.60;99.90
11003;DHT22;5554;55.796;13.090;2022-09-27T13:55:41;12.60;99.90
11003;DHT22;5554;55.796;13.090;2022-09-27T14:01:14;12.30;99.90
11003;DHT22;5554;55.796;13.090;2022-09-27T14:03:46;12.20;99.90
11003;DHT22;5554;55.796;13.090;2022-09-27T14:06:21;12.10;99.90
11003;DHT22;5554;55.796;13.090;2022-09-27T14:08:52;12.00;99.90
11003;DHT22;5554;55.796;13.090;2022-09-27T14:11:24;11.90;99.90
11003;DHT22;5554;55.796;13.090;2022-09-27T14:13:53;11.70;99.90
11003;DHT22;5554;55.796;13.090;2022-09-27T14:16:21;11.60;99.90
11003;DHT22;5554;55.796;13.090;2022-09-27T14:18:50;11.60;99.90
11003;DHT22;5554;55.796;13.090;2022-09-27T14:21:30;11.60;99.90
11003;DHT22;5554;55.796;13.090;2022-09-27T14:27:34;11.60;99.90
11003;DHT22;5554;55.796;13.090;2022-09-27T14:30:12;11.50;99.90
11003;DHT22;5554;55.796;13.090;2022-09-27T14:32:46;11.50;99.90
11003;DHT22;5554;55.796;13.090;2022-09-27T14:35:15;11.60;99.90
11003;DHT22;5554;55.796;13.090;2022-09-27T14:38:00;11.50;99.90
11003;DHT22;5554;55.796;13.090;2022-09-27T14:40:28;11.50;99.90
11003;DHT22;5554;55.796;13.090;2022-09-27T14:42:59;11.50;99.90
11003;DHT22;5554;55.796;13.090;2022-09-27T14:45:32;11.50;99.90
11003;DHT22;5554;55.796;13.090;2022-09-27T14:48:01;11.50;99.90
11003;DHT22;5554;55.796;13.090;2022-09-27T14:50:29;11.50;99.90
11003;DHT22;5554;55.796;13.090;2022-09-27T14:52:57;11.40;99.90
11003;DHT22;5554;55.796;13.090;2022-09-27T14:55:27;11.40;99.90
11003;DHT22;5554;55.796;13.090;2022-09-27T14:58:01;11.40;99.90
11003;DHT22;5554;55.796;13.090;2022-09-27T15:00:31;11.40;99.90
11003;DHT22;5554;55.796;13.090;2022-09-27T15:03:03;11.40;99.90
11003;DHT22;5554;55.796;13.090;2022-09-27T15:05:31;11.30;99.90
11003;DHT22;5554;55.796;13.090;2022-09-27T15:08:04;11.30;99.90
11003;DHT22;5554;55.796;13.090;2022-09-27T15:10:35;11.40;99.90
11003;DHT22;5554;55.796;13.090;2022-09-27T15:13:04;11.30;99.90
11003;DHT22;5554;55.796;13.090;2022-09-27T15:15:32;11.30;99.90
11003;DHT22;5554;55.796;13.090;2022-09-27T15:18:01;11.30;99.90
11003;DHT22;5554;55.796;13.090;2022-09-27T15:20:30;11.40;99.90
11003;DHT22;5554;55.796;13.090;2022-09-27T15:22:58;11.30;99.90
11003;DHT22;5554;55.796;13.090;2022-09-27T15:25:28;11.30;99.90
11003;DHT22;5554;55.796;13.090;2022-09-27T15:28:00;11.20;99.90
11003;DHT22;5554;55.796;13.090;2022-09-27T15:30:35;11.30;99.90
11003;DHT22;5554;55.796;13.090;2022-09-27T15:33:03;11.20;99.90
11003;DHT22;5554;55.796;13.090;2022-09-27T15:35:32;11.20;99.90
11003;DHT22;5554;55.796;13.090;2022-09-27T15:38:27;11.10;99.90
11003;DHT22;5554;55.796;13.090;2022-09-27T15:41:04;11.20;99.90
11003;DHT22;5554;55.796;13.090;2022-09-27T15:43:34;11.10;99.90
11003;DHT22;5554;55.796;13.090;2022-09-27T15:46:27;11.20;99.90
11003;DHT22;5554;55.796;13.090;2022-09-27T15:49:26;11.10;99.90
11003;DHT22;5554;55.796;13.090;2022-09-27T15:51:56;11.20;99.90
11003;DHT22;5554;55.796;13.090;2022-09-27T15:54:28;11.20;99.90
11003;DHT22;5554;55.796;13.090;2022-09-27T15:56:56;11.20;99.90
11003;DHT22;5554;55.796;13.090;2022-09-27T15:59:29;11.20;99.90
11003;DHT22;5554;55.796;13.090;2022-09-27T16:02:01;11.20;99.90
11003;DHT22;5554;55.796;13.090;2022-09-27T16:04:29;11.20;99.90
11003;DHT22;5554;55.796;13.090;2022-09-27T16:07:00;11.20;99.90
11003;DHT22;5554;55.796;13.090;2022-09-27T16:09:29;11.30;99.90
11003;DHT22;5554;55.796;13.090;2022-09-27T16:11:56;11.20;99.90
11003;DHT22;5554;55.796;13.090;2022-09-27T16:14:23;11.20;99.90
11003;DHT22;5554;55.796;13.090;2022-09-27T16:16:52;11.10;99.90
11003;DHT22;5554;55.796;13.090;2022-09-27T16:19:23;11.10;99.90
11003;DHT22;5554;55.796;13.090;2022-09-27T16:21:50;11.10;99.90
11003;DHT22;5554;55.796;13.090;2022-09-27T16:24:17;11.00;99.90
11003;DHT22;5554;55.796;13.090;2022-09-27T16:26:49;11.10;99.90
11003;DHT22;5554;55.796;13.090;2022-09-27T16:29:16;11.00;99.90
11003;DHT22;5554;55.796;13.090;2022-09-27T16:31:43;11.00;99.90
11003;DHT22;5554;55.796;13.090;2022-09-27T16:34:13;10.90;99.90
11003;DHT22;5554;55.796;13.090;2022-09-27T16:36:42;10.90;99.90
11003;DHT22;5554;55.796;13.090;2022-09-27T16:39:10;10.80;99.90
11003;DHT22;5554;55.796;13.090;2022-09-27T16:41:38;10.80;99.90
11003;DHT22;5554;55.796;13.090;2022-09-27T16:44:07;10.80;99.90
11003;DHT22;5554;55.796;13.090;2022-09-27T16:46:38;10.80;99.90
11003;DHT22;5554;55.796;13.090;2022-09-27T16:49:06;10.80;99.90
11003;DHT22;5554;55.796;13.090;2022-09-27T16:51:54;10.70;99.90
11003;DHT22;5554;55.796;13.090;2022-09-27T16:54:26;10.60;99.90
11003;DHT22;5554;55.796;13.090;2022-09-27T16:56:54;10.60;99.90
11003;DHT22;5554;55.796;13.090;2022-09-27T16:59:23;10.60;99.90
11003;DHT22;5554;55.796;13.090;2022-09-27T17:01:50;10.60;99.90
11003;DHT22;5554;55.796;13.090;2022-09-27T17:04:22;10.60;99.90
11003;DHT22;5554;55.796;13.090;2022-09-27T17:06:49;10.50;99.90
11003;DHT22;5554;55.796;13.090;2022-09-27T17:09:19;10.50;99.90
11003;DHT22;5554;55.796;13.090;2022-09-27T17:11:46;10.50;99.90
11003;DHT22;5554;55.796;13.090;2022-09-27T17:14:14;10.50;99.90
11003;DHT22;5554;55.796;13.090;2022-09-27T17:16:47;10.50;99.90
11003;DHT22;5554;55.796;13.090;2022-09-27T17:19:16;10.40;99.90
11003;DHT22;5554;55.796;13.090;2022-09-27T17:21:44;10.40;99.90
11003;DHT22;5554;55.796;13.090;2022-09-27T17:24:11;10.40;99.90
11003;DHT22;5554;55.796;13.090;2022-09-27T17:26:45;10.40;99.90
11003;DHT22;5554;55.796;13.090;2022-09-27T17:29:12;10.40;99.90
11003;DHT22;5554;55.796;13.090;2022-09-27T17:31:42;10.30;99.90
11003;DHT22;5554;55.796;13.090;2022-09-27T17:34:11;10.40;99.90
11003;DHT22;5554;55.796;13.090;2022-09-27T17:36:39;10.30;99.90
11003;DHT22;5554;55.796;13.090;2022-09-27T17:39:08;10.30;99.90
11003;DHT22;5554;55.796;13.090;2022-09-27T17:41:35;10.30;99.90
11003;DHT22;5554;55.796;13.090;2022-09-27T17:44:04;10.30;99.90
11003;DHT22;5554;55.796;13.090;2022-09-27T17:46:32;10.30;99.90
11003;DHT22;5554;55.796;13.090;2022-09-27T17:49:00;10.20;99.90
11003;DHT22;5554;55.796;13.090;2022-09-27T17:51:46;10.20;99.90
11003;DHT22;5554;55.796;13.090;2022-09-27T17:54:13;10.20;99.90
11003;DHT22;5554;55.796;13.090;2022-09-27T17:56:42;10.20;99.90
11003;DHT22;5554;55.796;13.090;2022-09-27T17:59:11;10.10;99.90
11003;DHT22;5554;55.796;13.090;2022-09-27T18:01:44;10.10;99.90
11003;DHT22;5554;55.796;13.090;2022-09-27T18:04:14;10.10;99.90
11003;DHT22;5554;55.796;13.090;2022-09-27T18:06:44;10.10;99.90
11003;DHT22;5554;55.796;13.090;2022-09-27T18:09:14;10.00;99.90
11003;DHT22;5554;55.796;13.090;2022-09-27T18:11:42;10.00;99.90
11003;DHT22;5554;55.796;13.090;2022-09-27T18:14:10;10.00;99.90
11003;DHT22;5554;55.796;13.090;2022-09-27T18:16:40;10.00;99.90
11003;DHT22;5554;55.796;13.090;2022-09-27T18:19:11;10.00;99.90
11003;DHT22;5554;55.796;13.090;2022-09-27T18:21:38;9.90;99.90
11003;DHT22;5554;55.796;13.090;2022-09-27T18:24:06;10.00;99.90
11003;DHT22;5554;55.796;13.090;2022-09-27T18:26:34;9.90;99.90
11003;DHT22;5554;55.796;13.090;2022-09-27T18:29:05;9.80;99.90
11003;DHT22;5554;55.796;13.090;2022-09-27T18:31:34;9.90;99.90
11003;DHT22;5554;55.796;13.090;2022-09-27T18:34:01;9.80;99.90
11003;DHT22;5554;55.796;13.090;2022-09-27T18:36:28;9.80;99.90
11003;DHT22;5554;55.796;13.090;2022-09-27T18:38:57;9.80;99.90
11003;DHT22;5554;55.796;13.090;2022-09-27T18:41:25;9.80;99.90